Time;durP1;ratioP1;P1;durP2;ratioP2;P2;SDS_P1;SDS_P2;PMS_P1;PMS_P2;Temp;Humidity;BMP_temperature;BMP_pressure;BME280_temperature;BME280_humidity;BME280_pressure;Samples;Min_cycle;Max_cycle;Signal;HPM_P1;HPM_P2
2022/09/28 00:01:49;;;;;;;0.20;0.10;;;;;;;;;;4970667;28;20042;-85
2022/09/28 00:04:15;;;;;;;0.20;0.10;;;;;;;;;;4969814;28;20125;-85
2022/09/28 00:06:41;;;;;;;0.20;0.10;;;;;;;;;;4969619;28;20049;-85
2022/09/28 00:09:07;;;;;;;0.20;0.10;;;;;;;;;;4969657;28;20125;-85
2022/09/28 00:11:34;;;;;;;0.20;0.10;;;;;;;;;;4968938;28;20347;-86
2022/09/28 00:14:02;;;;;;;0.20;0.10;;;;;;;;;;4969430;28;20046;-85
2022/09/28 00:16:39;;;;;;;0.20;0.10;;;;;;;;;;4970252;28;20041;-86
2022/09/28 00:19:05;;;;;;;0.20;0.10;;;;;;;;;;4985700;28;20060;-86
2022/09/28 00:21:33;;;;;;;0.20;0.10;;;;;;;;;;4969793;28;20050;-86
2022/09/28 00:24:13;;;;;;;0.20;0.10;;;;;;;;;;4985359;28;20539;-87
2022/09/28 00:26:46;;;;;;;0.20;0.10;;;;;;;;;;4971158;28;20050;-87
2022/09/28 00:29:15;;;;;;;0.20;0.10;;;;;;;;;;4984323;28;20044;-86
2022/09/28 00:31:41;;;;;;;0.20;0.05;;;;;;;;;;4985850;28;20049;-86
2022/09/28 00:34:07;;;;;;;0.20;0.10;;;;;;;;;;4971442;28;20046;-86
2022/09/28 00:36:34;;;;;;;0.20;0.10;;;;;;;;;;4966965;28;20092;-86
2022/09/28 00:39:03;;;;;;;0.20;0.10;;;;;;;;;;4971530;28;20038;-86
2022/09/28 00:41:29;;;;;;;0.20;0.10;;;;;;;;;;4987147;28;20035;-86
2022/09/28 00:44:14;;;;;;;0.20;0.10;;;;;;;;;;4985134;28;20038;-86
2022/09/28 00:46:41;;;;;;;0.20;0.10;;;;;;;;;;4969366;28;20046;-84
2022/09/28 00:49:11;;;;;;;0.20;0.10;;;;;;;;;;4954042;28;20041;-85
2022/09/28 00:51:38;;;;;;;0.20;0.10;;;;;;;;;;4983791;28;20099;-85
2022/09/28 00:54:05;;;;;;;0.20;0.10;;;;;;;;;;4986338;28;20454;-85
2022/09/28 00:56:32;;;;;;;0.20;0.10;;;;;;;;;;4969431;28;20492;-86
2022/09/28 00:58:58;;;;;;;0.20;0.10;;;;;;;;;;4969577;28;20030;-85
2022/09/28 01:01:25;;;;;;;0.20;0.10;;;;;;;;;;4969928;28;20137;-86
2022/09/28 01:03:53;;;;;;;0.20;0.10;;;;;;;;;;4984068;28;20261;-86
2022/09/28 01:06:23;;;;;;;0.20;0.10;;;;;;;;;;4968377;28;20049;-86
2022/09/28 01:08:51;;;;;;;0.20;0.10;;;;;;;;;;4969361;28;20052;-86
2022/09/28 01:11:18;;;;;;;1.75;0.50;;;;;;;;;;4985960;28;21150;-86
2022/09/28 01:13:45;;;;;;;0.20;0.10;;;;;;;;;;4967293;28;20049;-86
2022/09/28 01:16:16;;;;;;;0.20;0.10;;;;;;;;;;4968919;28;20041;-86
2022/09/28 01:19:01;;;;;;;0.20;0.00;;;;;;;;;;4967743;28;20038;-86
2022/09/28 01:21:27;;;;;;;0.20;0.10;;;;;;;;;;4968730;28;20705;-86
2022/09/28 01:23:53;;;;;;;0.20;0.10;;;;;;;;;;4980872;28;20118;-86
2022/09/28 01:26:25;;;;;;;0.20;0.00;;;;;;;;;;4981839;28;20084;-86
2022/09/28 01:28:59;;;;;;;0.20;0.10;;;;;;;;;;4968648;28;20049;-86
2022/09/28 01:31:29;;;;;;;0.20;0.10;;;;;;;;;;4985296;28;20038;-86
2022/09/28 01:33:57;;;;;;;0.20;0.10;;;;;;;;;;4966679;28;20048;-87
2022/09/28 01:36:35;;;;;;;0.20;0.10;;;;;;;;;;4970984;28;20057;-87
2022/09/28 01:39:05;;;;;;;0.20;0.10;;;;;;;;;;5000455;28;20049;-86
2022/09/28 01:41:32;;;;;;;0.20;0.10;;;;;;;;;;4983699;28;20045;-86
2022/09/28 01:44:01;;;;;;;0.20;0.10;;;;;;;;;;4986822;28;20038;-86
2022/09/28 01:46:33;;;;;;;0.20;0.10;;;;;;;;;;4971119;28;20117;-86
2022/09/28 01:49:12;;;;;;;0.20;0.10;;;;;;;;;;4969721;28;20030;-87
2022/09/28 01:51:40;;;;;;;0.20;0.10;;;;;;;;;;4983819;28;20046;-87
2022/09/28 01:54:11;;;;;;;0.20;0.10;;;;;;;;;;4968531;28;20124;-86
2022/09/28 01:56:38;;;;;;;0.20;0.10;;;;;;;;;;4986190;28;20085;-89
2022/09/28 01:59:12;;;;;;;0.40;0.40;;;;;;;;;;4970103;28;20516;-87
2022/09/28 02:01:43;;;;;;;0.20;0.10;;;;;;;;;;4971473;28;20532;-87
2022/09/28 02:04:24;;;;;;;1.17;0.32;;;;;;;;;;4984396;28;20038;-87
2022/09/28 02:06:53;;;;;;;0.20;0.10;;;;;;;;;;4967244;28;20041;-87
2022/09/28 02:09:33;;;;;;;0.20;0.10;;;;;;;;;;4966706;28;20046;-86
2022/09/28 02:12:01;;;;;;;0.20;0.10;;;;;;;;;;5001732;28;20819;-87
2022/09/28 02:14:28;;;;;;;0.20;0.10;;;;;;;;;;4986793;28;20042;-86
2022/09/28 02:16:56;;;;;;;0.20;0.10;;;;;;;;;;4970497;28;20037;-86
2022/09/28 02:19:23;;;;;;;0.20;0.10;;;;;;;;;;5001112;28;20038;-86
2022/09/28 02:22:15;;;;;;;0.20;0.10;;;;;;;;;;4986897;28;20038;-86
2022/09/28 02:24:46;;;;;;;0.20;0.10;;;;;;;;;;4965077;28;20188;-86
2022/09/28 02:27:14;;;;;;;0.20;0.10;;;;;;;;;;4986915;28;20049;-85
2022/09/28 02:29:40;;;;;;;0.20;0.10;;;;;;;;;;4982700;28;20046;-85
2022/09/28 02:32:06;;;;;;;0.20;0.10;;;;;;;;;;4967379;28;20115;-85
2022/09/28 02:34:32;;;;;;;0.20;0.10;;;;;;;;;;4970623;28;20041;-86
2022/09/28 02:36:59;;;;;;;0.20;0.10;;;;;;;;;;4969380;28;20121;-85
2022/09/28 02:39:25;;;;;;;0.20;0.10;;;;;;;;;;4985807;28;20042;-86
2022/09/28 02:42:22;;;;;;;0.20;0.10;;;;;;;;;;4970538;28;20410;-85
2022/09/28 02:45:09;;;;;;;0.20;0.10;;;;;;;;;;4957432;28;20396;-85
2022/09/28 02:47:35;;;;;;;0.20;0.10;;;;;;;;;;4973761;28;20041;-86
2022/09/28 02:50:01;;;;;;;0.20;0.10;;;;;;;;;;4969029;28;20084;-86
2022/09/28 02:52:38;;;;;;;0.20;0.10;;;;;;;;;;4967573;28;20064;-86
2022/09/28 02:55:16;;;;;;;0.20;0.10;;;;;;;;;;4971989;28;20526;-86
2022/09/28 02:58:02;;;;;;;0.20;0.10;;;;;;;;;;5001785;28;20083;-85
2022/09/28 03:00:29;;;;;;;0.20;0.10;;;;;;;;;;4986226;28;20038;-86
2022/09/28 03:02:58;;;;;;;0.20;0.10;;;;;;;;;;4986198;28;20065;-86
2022/09/28 03:05:45;;;;;;;0.20;0.10;;;;;;;;;;4969516;28;20098;-85
2022/09/28 03:08:25;;;;;;;0.20;0.10;;;;;;;;;;4966568;28;20355;-85
2022/09/28 03:11:14;;;;;;;0.20;0.10;;;;;;;;;;4986332;28;20048;-86
2022/09/28 03:13:40;;;;;;;0.20;0.10;;;;;;;;;;4970053;28;20077;-85
2022/09/28 03:16:16;;;;;;;0.20;0.10;;;;;;;;;;4985714;28;20528;-87
2022/09/28 03:18:42;;;;;;;0.20;0.10;;;;;;;;;;4968622;28;20053;-86
2022/09/28 03:21:09;;;;;;;0.20;0.10;;;;;;;;;;4965774;28;20183;-86
2022/09/28 03:23:35;;;;;;;0.20;0.00;;;;;;;;;;4969279;28;20528;-87
2022/09/28 03:26:01;;;;;;;0.20;0.10;;;;;;;;;;4970040;28;20099;-86
2022/09/28 03:28:28;;;;;;;0.20;0.05;;;;;;;;;;4965863;28;20091;-85
2022/09/28 03:30:54;;;;;;;0.20;0.10;;;;;;;;;;4966591;28;20480;-85
2022/09/28 03:33:20;;;;;;;0.20;0.10;;;;;;;;;;4964896;28;20084;-86
2022/09/28 03:35:47;;;;;;;0.20;0.10;;;;;;;;;;4984908;28;20050;-85
2022/09/28 03:38:13;;;;;;;0.20;0.10;;;;;;;;;;4969824;28;20034;-85
2022/09/28 03:40:39;;;;;;;0.20;0.10;;;;;;;;;;4970245;28;20132;-85
2022/09/28 03:43:05;;;;;;;0.20;0.10;;;;;;;;;;4984745;28;20030;-85
2022/09/28 03:45:31;;;;;;;0.20;0.10;;;;;;;;;;4968115;28;20042;-85
2022/09/28 03:47:59;;;;;;;0.20;0.10;;;;;;;;;;4968420;28;20041;-85
2022/09/28 03:50:25;;;;;;;0.20;0.10;;;;;;;;;;4952151;28;20037;-85
2022/09/28 03:52:51;;;;;;;0.20;0.10;;;;;;;;;;4969174;28;20547;-86
2022/09/28 03:55:17;;;;;;;0.20;0.10;;;;;;;;;;4968393;28;20113;-86
2022/09/28 03:57:43;;;;;;;0.20;0.10;;;;;;;;;;4985258;28;20026;-86
2022/09/28 04:00:09;;;;;;;0.20;0.10;;;;;;;;;;4965797;28;20038;-86
2022/09/28 04:02:35;;;;;;;0.20;0.10;;;;;;;;;;4971560;28;21404;-86
2022/09/28 04:05:02;;;;;;;0.20;0.10;;;;;;;;;;4973934;28;20117;-86
2022/09/28 04:07:28;;;;;;;0.20;0.10;;;;;;;;;;4989744;28;20042;-86
2022/09/28 04:09:54;;;;;;;0.20;0.10;;;;;;;;;;4956690;28;20124;-84
2022/09/28 04:12:22;;;;;;;0.20;0.10;;;;;;;;;;4978937;23;20396;-87
2022/09/28 04:14:51;;;;;;;0.20;0.10;;;;;;;;;;4980171;28;20114;-85
2022/09/28 04:17:17;;;;;;;0.20;0.10;;;;;;;;;;4967534;28;22062;-86
2022/09/28 04:19:43;;;;;;;0.20;0.10;;;;;;;;;;4969189;28;20045;-86
2022/09/28 04:22:10;;;;;;;0.20;0.10;;;;;;;;;;4967589;28;20405;-87
2022/09/28 04:24:36;;;;;;;0.20;0.10;;;;;;;;;;4963394;28;20177;-85
2022/09/28 04:29:49;;;;;;;0.20;0.10;;;;;;;;;;4978473;28;20178;-86
2022/09/28 04:32:18;;;;;;;0.20;0.10;;;;;;;;;;4980246;28;20200;-85
2022/09/28 04:34:44;;;;;;;0.20;0.10;;;;;;;;;;4949836;28;20424;-86
2022/09/28 04:37:10;;;;;;;0.20;0.10;;;;;;;;;;4965209;28;20551;-85
2022/09/28 04:39:43;;;;;;;0.20;0.10;;;;;;;;;;4961913;28;20084;-86
2022/09/28 04:42:09;;;;;;;0.20;0.10;;;;;;;;;;4944297;28;20567;-86
2022/09/28 04:44:45;;;;;;;0.20;0.10;;;;;;;;;;4980885;28;20052;-86
2022/09/28 04:47:12;;;;;;;0.20;0.10;;;;;;;;;;4969883;28;20044;-86
2022/09/28 04:49:38;;;;;;;0.20;0.10;;;;;;;;;;4968064;28;20049;-86
2022/09/28 04:52:07;;;;;;;0.20;0.10;;;;;;;;;;4964531;28;20267;-87
2022/09/28 04:54:38;;;;;;;0.20;0.10;;;;;;;;;;4967677;28;20608;-87
2022/09/28 04:57:04;;;;;;;0.20;0.00;;;;;;;;;;4982369;28;20508;-86
2022/09/28 04:59:31;;;;;;;0.20;0.10;;;;;;;;;;4954250;28;20481;-86
2022/09/28 05:01:59;;;;;;;0.20;0.10;;;;;;;;;;4957666;28;20046;-87
2022/09/28 05:04:27;;;;;;;0.30;0.25;;;;;;;;;;4968534;28;20495;-87
2022/09/28 05:06:53;;;;;;;0.20;0.10;;;;;;;;;;4967484;28;20045;-86
2022/09/28 05:09:19;;;;;;;0.20;0.10;;;;;;;;;;4979387;28;20058;-87
2022/09/28 05:11:51;;;;;;;0.20;0.20;;;;;;;;;;4966785;28;20046;-86
2022/09/28 05:14:18;;;;;;;;;;;;;;;;;;4966123;28;20280;-87
2022/09/28 05:16:50;;;;;;;0.20;0.10;;;;;;;;;;4962950;28;20644;-87
2022/09/28 05:19:22;;;;;;;0.20;0.10;;;;;;;;;;4968293;28;20117;-87
2022/09/28 05:21:48;;;;;;;0.20;0.10;;;;;;;;;;4967913;28;20037;-87
2022/09/28 05:24:17;;;;;;;0.20;0.10;;;;;;;;;;4954171;28;20125;-87
2022/09/28 05:26:43;;;;;;;0.20;0.10;;;;;;;;;;4949631;28;20042;-87
2022/09/28 05:29:12;;;;;;;0.20;0.10;;;;;;;;;;4949035;28;20435;-86
2022/09/28 05:31:46;;;;;;;0.20;0.10;;;;;;;;;;4960015;28;20201;-87
2022/09/28 05:34:24;;;;;;;0.20;0.10;;;;;;;;;;4965973;28;20128;-87
2022/09/28 05:36:54;;;;;;;0.20;0.10;;;;;;;;;;4965395;28;20096;-86
2022/09/28 05:39:20;;;;;;;0.20;0.10;;;;;;;;;;4968571;28;20053;-87
2022/09/28 05:41:46;;;;;;;0.20;0.10;;;;;;;;;;4965671;28;20038;-88
2022/09/28 05:44:12;;;;;;;0.20;0.10;;;;;;;;;;4964364;28;20045;-87
2022/09/28 05:46:46;;;;;;;0.20;0.10;;;;;;;;;;4952320;28;20482;-88
2022/09/28 05:49:12;;;;;;;0.20;0.10;;;;;;;;;;4961647;28;20052;-86
2022/09/28 05:51:38;;;;;;;0.20;0.10;;;;;;;;;;4960416;28;20097;-87
2022/09/28 05:54:04;;;;;;;0.20;0.10;;;;;;;;;;4964361;28;20038;-87
2022/09/28 05:56:31;;;;;;;0.20;0.10;;;;;;;;;;4946390;28;20037;-87
2022/09/28 05:58:57;;;;;;;0.20;0.10;;;;;;;;;;4979612;28;20045;-86
2022/09/28 06:01:24;;;;;;;0.20;0.10;;;;;;;;;;4964275;28;20176;-86
2022/09/28 06:03:50;;;;;;;0.20;0.10;;;;;;;;;;4966552;28;20096;-87
2022/09/28 06:06:16;;;;;;;0.20;0.10;;;;;;;;;;4966017;28;20042;-87
2022/09/28 06:08:42;;;;;;;0.20;0.10;;;;;;;;;;4976283;28;20151;-87
2022/09/28 06:11:11;;;;;;;0.30;0.10;;;;;;;;;;4969388;28;20121;-87
2022/09/28 06:13:40;;;;;;;0.20;0.10;;;;;;;;;;4954643;28;20051;-87
2022/09/28 06:16:07;;;;;;;0.20;0.10;;;;;;;;;;4954031;28;20328;-88
2022/09/28 06:18:33;;;;;;;0.20;0.10;;;;;;;;;;4983679;28;20922;-88
2022/09/28 06:20:59;;;;;;;0.20;0.10;;;;;;;;;;4958609;28;20045;-88
2022/09/28 06:23:25;;;;;;;0.20;0.10;;;;;;;;;;4974687;28;20412;-88
2022/09/28 06:25:52;;;;;;;0.20;0.10;;;;;;;;;;4952518;28;20184;-87
2022/09/28 06:28:18;;;;;;;0.20;0.10;;;;;;;;;;4948451;28;20042;-88
2022/09/28 06:30:44;;;;;;;0.32;0.20;;;;;;;;;;4947292;28;20113;-88
2022/09/28 06:33:11;;;;;;;0.20;0.10;;;;;;;;;;4954721;28;20034;-88
2022/09/28 06:35:38;;;;;;;0.20;0.10;;;;;;;;;;4964357;28;20037;-89
2022/09/28 06:38:04;;;;;;;0.20;0.10;;;;;;;;;;4964741;28;20423;-89
2022/09/28 06:40:31;;;;;;;0.20;0.20;;;;;;;;;;4967122;28;20031;-88
2022/09/28 06:43:02;;;;;;;0.20;0.10;;;;;;;;;;4968616;28;20053;-89
2022/09/28 06:45:28;;;;;;;0.20;0.10;;;;;;;;;;4969083;28;20067;-89
2022/09/28 06:47:55;;;;;;;0.20;0.10;;;;;;;;;;4965859;28;20033;-88
2022/09/28 06:50:22;;;;;;;0.20;0.10;;;;;;;;;;4968403;28;20048;-89
2022/09/28 06:52:52;;;;;;;0.20;0.10;;;;;;;;;;4965508;28;20057;-89
2022/09/28 06:55:18;;;;;;;0.20;0.10;;;;;;;;;;4984423;28;20757;-88
2022/09/28 06:57:44;;;;;;;0.20;0.10;;;;;;;;;;4961333;28;20045;-88
2022/09/28 07:00:10;;;;;;;0.20;0.10;;;;;;;;;;4951843;28;20041;-88
2022/09/28 07:02:36;;;;;;;0.20;0.10;;;;;;;;;;4974822;28;20664;-89
2022/09/28 07:05:02;;;;;;;0.20;0.10;;;;;;;;;;4950634;28;20612;-88
2022/09/28 07:07:30;;;;;;;0.20;0.10;;;;;;;;;;4968833;28;20136;-88
2022/09/28 07:09:58;;;;;;;0.20;0.10;;;;;;;;;;4983984;28;20436;-88
2022/09/28 07:12:24;;;;;;;0.20;0.10;;;;;;;;;;4954239;28;20408;-87
2022/09/28 07:14:56;;;;;;;0.20;0.10;;;;;;;;;;4947621;28;20042;-89
2022/09/28 07:17:22;;;;;;;0.20;0.10;;;;;;;;;;4960354;28;20074;-88
2022/09/28 07:19:51;;;;;;;0.20;0.10;;;;;;;;;;4946856;28;20041;-89
2022/09/28 07:22:41;;;;;;;0.20;0.10;;;;;;;;;;4948647;28;20038;-88
2022/09/28 07:25:08;;;;;;;0.20;0.08;;;;;;;;;;4950958;28;20054;-88
2022/09/28 07:27:38;;;;;;;0.20;0.10;;;;;;;;;;4963896;28;20046;-88
2022/09/28 07:30:05;;;;;;;0.20;0.10;;;;;;;;;;4968518;28;20042;-88
2022/09/28 07:32:33;;;;;;;0.20;0.10;;;;;;;;;;4964030;28;20042;-88
2022/09/28 07:35:03;;;;;;;0.65;0.38;;;;;;;;;;4967351;28;20452;-88
2022/09/28 07:37:30;;;;;;;0.20;0.10;;;;;;;;;;4951285;28;20535;-87
2022/09/28 07:42:40;;;;;;;0.20;0.10;;;;;;;;;;4972007;28;20057;-86
2022/09/28 07:45:07;;;;;;;0.20;0.10;;;;;;;;;;4954693;28;20045;-86
2022/09/28 07:47:33;;;;;;;0.20;0.10;;;;;;;;;;4949089;28;20420;-86
2022/09/28 07:49:59;;;;;;;0.82;0.68;;;;;;;;;;4971152;28;20034;-85
2022/09/28 07:52:27;;;;;;;0.20;0.10;;;;;;;;;;4948283;28;20038;-86
2022/09/28 07:54:54;;;;;;;0.20;0.10;;;;;;;;;;4983980;28;20524;-88
2022/09/28 07:57:20;;;;;;;0.20;0.10;;;;;;;;;;4980900;28;20045;-86
2022/09/28 07:59:47;;;;;;;0.20;0.10;;;;;;;;;;4953395;28;20169;-86
2022/09/28 08:02:14;;;;;;;0.20;0.10;;;;;;;;;;4980701;28;20042;-86
2022/09/28 08:04:40;;;;;;;0.20;0.10;;;;;;;;;;4968818;28;20042;-85
2022/09/28 08:07:09;;;;;;;0.20;0.10;;;;;;;;;;4971261;28;20130;-85
2022/09/28 08:09:36;;;;;;;0.20;0.10;;;;;;;;;;4980547;28;20080;-86
2022/09/28 08:12:03;;;;;;;0.20;0.10;;;;;;;;;;4969927;28;20057;-86
2022/09/28 08:14:32;;;;;;;0.20;0.10;;;;;;;;;;4953899;28;20319;-87
2022/09/28 08:16:59;;;;;;;0.20;0.10;;;;;;;;;;4971887;28;20038;-86
2022/09/28 08:19:25;;;;;;;0.20;0.10;;;;;;;;;;4967023;28;20100;-86
2022/09/28 08:21:51;;;;;;;0.20;0.10;;;;;;;;;;4980979;28;20038;-86
2022/09/28 08:24:17;;;;;;;0.20;0.10;;;;;;;;;;4969904;28;20038;-87
2022/09/28 08:26:44;;;;;;;0.20;0.10;;;;;;;;;;4950518;28;20046;-86
2022/09/28 08:29:10;;;;;;;0.20;0.10;;;;;;;;;;4979648;28;20042;-87
2022/09/28 08:31:36;;;;;;;0.20;0.10;;;;;;;;;;4966578;28;20483;-88
2022/09/28 08:34:02;;;;;;;0.20;0.10;;;;;;;;;;4966740;28;20045;-88
2022/09/28 08:36:28;;;;;;;0.20;0.10;;;;;;;;;;4968923;28;20042;-86
2022/09/28 08:38:55;;;;;;;0.20;0.10;;;;;;;;;;4980097;28;20046;-86
2022/09/28 08:41:27;;;;;;;0.20;0.10;;;;;;;;;;4964964;28;20414;-87
2022/09/28 08:43:59;;;;;;;0.20;0.10;;;;;;;;;;4966845;28;20518;-86
2022/09/28 08:46:36;;;;;;;0.20;0.10;;;;;;;;;;4985769;28;20046;-87
2022/09/28 08:49:06;;;;;;;0.20;0.10;;;;;;;;;;4982854;28;20050;-86
2022/09/28 08:51:45;;;;;;;0.20;0.10;;;;;;;;;;4966503;28;20056;-87
2022/09/28 08:54:23;;;;;;;0.20;0.10;;;;;;;;;;4968996;28;20039;-88
2022/09/28 08:56:52;;;;;;;0.20;0.10;;;;;;;;;;4965720;28;20124;-88
2022/09/28 08:59:26;;;;;;;0.20;0.10;;;;;;;;;;4964162;28;20555;-88
2022/09/28 09:01:55;;;;;;;0.20;0.10;;;;;;;;;;4964282;28;20497;-87
2022/09/28 09:04:22;;;;;;;0.20;0.10;;;;;;;;;;4979942;28;20045;-86
2022/09/28 09:06:48;;;;;;;0.20;0.10;;;;;;;;;;4995444;28;20046;-87
2022/09/28 09:09:26;;;;;;;0.20;0.10;;;;;;;;;;4978886;28;20046;-86
2022/09/28 09:12:11;;;;;;;0.20;0.10;;;;;;;;;;4976660;28;20094;-86
2022/09/28 09:14:40;;;;;;;0.20;0.20;;;;;;;;;;4982414;28;20456;-86
2022/09/28 09:17:06;;;;;;;0.20;0.10;;;;;;;;;;4970956;28;20064;-87
2022/09/28 09:19:50;;;;;;;0.20;0.10;;;;;;;;;;4976903;28;20485;-86
2022/09/28 09:22:17;;;;;;;0.20;0.10;;;;;;;;;;4965700;28;20046;-86
2022/09/28 09:24:48;;;;;;;0.20;0.10;;;;;;;;;;4975770;28;20052;-87
2022/09/28 09:27:18;;;;;;;0.20;0.10;;;;;;;;;;4983635;28;20489;-87
2022/09/28 09:30:05;;;;;;;0.20;0.10;;;;;;;;;;4978535;28;20300;-87
2022/09/28 09:32:52;;;;;;;0.20;0.10;;;;;;;;;;4976140;28;20048;-87
2022/09/28 09:35:37;;;;;;;0.20;0.10;;;;;;;;;;4981727;28;20245;-86
2022/09/28 09:38:22;;;;;;;0.20;0.10;;;;;;;;;;4979244;28;20063;-87
2022/09/28 09:41:00;;;;;;;0.20;0.10;;;;;;;;;;4963955;28;20049;-87
2022/09/28 09:43:29;;;;;;;0.20;0.10;;;;;;;;;;4986835;28;20133;-85
2022/09/28 09:46:14;;;;;;;0.20;0.10;;;;;;;;;;4964112;28;20046;-87
2022/09/28 09:48:46;;;;;;;0.20;0.10;;;;;;;;;;4976054;28;20050;-88
2022/09/28 09:51:33;;;;;;;0.40;0.32;;;;;;;;;;4961219;28;20038;-88
2022/09/28 09:54:02;;;;;;;0.20;0.10;;;;;;;;;;4965778;28;20037;-87
2022/09/28 09:56:28;;;;;;;0.20;0.10;;;;;;;;;;4980402;28;20046;-88
2022/09/28 09:59:11;;;;;;;0.20;0.10;;;;;;;;;;4993707;28;20064;-88
2022/09/28 10:01:41;;;;;;;0.20;0.10;;;;;;;;;;4968941;28;20042;-86
2022/09/28 10:04:27;;;;;;;0.20;0.10;;;;;;;;;;4968315;28;20038;-89
2022/09/28 10:06:57;;;;;;;0.20;0.10;;;;;;;;;;4963309;28;20050;-88
2022/09/28 10:09:25;;;;;;;0.20;0.10;;;;;;;;;;4963300;28;20041;-88
2022/09/28 10:11:51;;;;;;;0.20;0.10;;;;;;;;;;4984924;22;20081;-86
2022/09/28 10:14:22;;;;;;;0.20;0.10;;;;;;;;;;4947839;28;20657;-86
2022/09/28 10:16:49;;;;;;;0.20;0.10;;;;;;;;;;4980783;28;20031;-84
2022/09/28 10:19:17;;;;;;;0.20;0.10;;;;;;;;;;4947072;28;20047;-84
2022/09/28 10:21:45;;;;;;;0.20;0.10;;;;;;;;;;4966591;28;20073;-84
2022/09/28 10:24:29;;;;;;;0.20;0.10;;;;;;;;;;4937458;28;20509;-84
2022/09/28 10:26:58;;;;;;;0.20;0.10;;;;;;;;;;4935961;28;20042;-84
2022/09/28 10:29:25;;;;;;;0.45;0.38;;;;;;;;;;4948449;28;20069;-84
2022/09/28 10:31:53;;;;;;;0.20;0.10;;;;;;;;;;4940439;28;20122;-84
2022/09/28 10:34:29;;;;;;;0.20;0.10;;;;;;;;;;4951081;28;20066;-84
2022/09/28 10:36:58;;;;;;;0.20;0.10;;;;;;;;;;4948053;28;20047;-83
2022/09/28 10:39:33;;;;;;;0.20;0.10;;;;;;;;;;4948965;28;20070;-84
2022/09/28 10:42:02;;;;;;;0.20;0.10;;;;;;;;;;4922550;28;20031;-83
2022/09/28 10:44:30;;;;;;;0.20;0.10;;;;;;;;;;4912122;28;20043;-83
2022/09/28 10:47:00;;;;;;;0.20;0.10;;;;;;;;;;4950536;28;20105;-84
2022/09/28 10:49:39;;;;;;;0.20;0.10;;;;;;;;;;4949887;28;20404;-85
2022/09/28 10:52:25;;;;;;;0.20;0.10;;;;;;;;;;4933877;28;20593;-84
2022/09/28 10:54:54;;;;;;;0.20;0.10;;;;;;;;;;4948858;28;20043;-84
2022/09/28 10:57:27;;;;;;;0.20;0.10;;;;;;;;;;4934091;28;20419;-85
2022/09/28 10:59:54;;;;;;;0.20;0.10;;;;;;;;;;4925781;28;20042;-84
2022/09/28 11:02:40;;;;;;;0.63;0.20;;;;;;;;;;4947500;28;20042;-83
2022/09/28 11:05:06;;;;;;;0.30;0.30;;;;;;;;;;4947028;28;20838;-83
2022/09/28 11:07:33;;;;;;;0.20;0.10;;;;;;;;;;4965517;28;20100;-84
2022/09/28 11:10:00;;;;;;;0.20;0.03;;;;;;;;;;4933554;28;20468;-85
2022/09/28 11:12:30;;;;;;;0.20;0.10;;;;;;;;;;4926723;28;20307;-85
2022/09/28 11:15:01;;;;;;;0.20;0.10;;;;;;;;;;4947761;28;20042;-85
2022/09/28 11:17:29;;;;;;;0.20;0.10;;;;;;;;;;4941787;28;20437;-85
2022/09/28 11:19:56;;;;;;;0.20;0.10;;;;;;;;;;4938466;28;20035;-85
2022/09/28 11:22:25;;;;;;;0.20;0.10;;;;;;;;;;4934040;28;20070;-85
2022/09/28 11:24:52;;;;;;;0.20;0.10;;;;;;;;;;4947837;28;20106;-84
2022/09/28 11:27:25;;;;;;;0.20;0.10;;;;;;;;;;4935342;28;20047;-86
2022/09/28 11:30:01;;;;;;;0.20;0.10;;;;;;;;;;4930043;28;20128;-85
2022/09/28 11:32:32;;;;;;;0.20;0.10;;;;;;;;;;4952326;28;20138;-85
2022/09/28 11:34:59;;;;;;;0.20;0.10;;;;;;;;;;4932726;28;20089;-85
2022/09/28 11:37:33;;;;;;;0.20;0.10;;;;;;;;;;4935240;28;20099;-85
2022/09/28 11:40:03;;;;;;;0.20;0.10;;;;;;;;;;4936102;28;20070;-84
2022/09/28 11:42:36;;;;;;;0.20;0.10;;;;;;;;;;4927536;28;20050;-85
2022/09/28 11:45:11;;;;;;;0.20;0.10;;;;;;;;;;4949450;28;20092;-86
2022/09/28 11:47:46;;;;;;;0.20;0.10;;;;;;;;;;4933704;28;20126;-85
2022/09/28 11:50:17;;;;;;;0.20;0.10;;;;;;;;;;4938151;28;20042;-85
2022/09/28 11:52:49;;;;;;;0.20;0.10;;;;;;;;;;4929474;28;20043;-84
2022/09/28 11:55:32;;;;;;;0.20;0.10;;;;;;;;;;4927243;28;20099;-84
2022/09/28 11:57:58;;;;;;;;;;;;;;;;;;4927195;28;20493;-83
2022/09/28 12:00:24;;;;;;;0.20;0.10;;;;;;;;;;4939764;28;19925;-83
2022/09/28 12:02:52;;;;;;;0.20;0.10;;;;;;;;;;4936048;28;20038;-82
2022/09/28 12:05:22;;;;;;;0.20;0.10;;;;;;;;;;4948909;28;20585;-82
2022/09/28 12:07:51;;;;;;;0.20;0.10;;;;;;;;;;4936145;28;20097;-82
2022/09/28 12:10:26;;;;;;;0.20;0.10;;;;;;;;;;4948666;28;20430;-83
2022/09/28 12:13:11;;;;;;;0.20;0.10;;;;;;;;;;4925095;28;20053;-82
2022/09/28 12:15:49;;;;;;;0.20;0.10;;;;;;;;;;4947705;28;20447;-82
2022/09/28 12:18:21;;;;;;;0.20;0.10;;;;;;;;;;4951194;28;20517;-81
2022/09/28 12:20:50;;;;;;;0.20;0.10;;;;;;;;;;4952689;28;20763;-82
2022/09/28 12:23:24;;;;;;;0.20;0.10;;;;;;;;;;4952948;28;20039;-82
2022/09/28 12:26:02;;;;;;;0.20;0.10;;;;;;;;;;4953793;28;20042;-82
2022/09/28 12:28:38;;;;;;;0.20;0.10;;;;;;;;;;4955273;28;20045;-82
2022/09/28 12:31:16;;;;;;;0.20;0.10;;;;;;;;;;4957372;28;20497;-83
2022/09/28 12:33:45;;;;;;;0.20;0.10;;;;;;;;;;4933809;28;20039;-84
2022/09/28 12:36:24;;;;;;;0.20;0.10;;;;;;;;;;4937328;28;20473;-83
2022/09/28 12:39:09;;;;;;;0.20;0.00;;;;;;;;;;4954881;28;20110;-83
2022/09/28 12:41:38;;;;;;;0.20;0.10;;;;;;;;;;4936819;28;20043;-84
2022/09/28 12:44:12;;;;;;;0.20;0.10;;;;;;;;;;4951386;28;20069;-83
2022/09/28 12:46:45;;;;;;;0.20;0.10;;;;;;;;;;4936884;28;20038;-83
2022/09/28 12:49:11;;;;;;;0.20;0.10;;;;;;;;;;4950313;28;20113;-83
2022/09/28 12:51:37;;;;;;;0.20;0.10;;;;;;;;;;4937993;28;22066;-83
2022/09/28 12:54:14;;;;;;;0.20;0.10;;;;;;;;;;4952091;28;20050;-83
2022/09/28 12:56:43;;;;;;;0.20;0.10;;;;;;;;;;4937482;28;20034;-84
2022/09/28 12:59:09;;;;;;;0.20;0.10;;;;;;;;;;4951247;28;20098;-83
2022/09/28 13:01:47;;;;;;;0.20;0.08;;;;;;;;;;4938737;28;20513;-83
2022/09/28 13:04:34;;;;;;;0.20;0.10;;;;;;;;;;4952060;28;20042;-83
2022/09/28 13:07:03;;;;;;;0.20;0.10;;;;;;;;;;4911278;28;20058;-84
2022/09/28 13:09:34;;;;;;;0.20;0.10;;;;;;;;;;4953579;28;20125;-83
2022/09/28 13:12:14;;;;;;;0.20;0.10;;;;;;;;;;4950724;28;20070;-84
2022/09/28 13:14:52;;;;;;;0.20;0.10;;;;;;;;;;4938151;28;21566;-83
2022/09/28 13:17:40;;;;;;;0.20;0.10;;;;;;;;;;4949096;28;20053;-83
2022/09/28 13:20:22;;;;;;;0.20;0.10;;;;;;;;;;4934569;28;20031;-84
2022/09/28 13:22:52;;;;;;;0.20;0.10;;;;;;;;;;4950879;28;20031;-83
2022/09/28 13:25:20;;;;;;;0.20;0.10;;;;;;;;;;4952480;28;20536;-84
2022/09/28 13:27:50;;;;;;;0.20;0.10;;;;;;;;;;4937543;28;20407;-84
2022/09/28 13:30:18;;;;;;;0.20;0.10;;;;;;;;;;4930272;28;20057;-84
2022/09/28 13:32:45;;;;;;;0.20;0.10;;;;;;;;;;4934280;28;20047;-85
2022/09/28 13:35:18;;;;;;;0.20;0.10;;;;;;;;;;4935024;28;20043;-85
2022/09/28 13:37:44;;;;;;;0.20;0.00;;;;;;;;;;4951007;28;20038;-83
2022/09/28 13:40:11;;;;;;;0.20;0.10;;;;;;;;;;4949146;28;20521;-86
2022/09/28 13:42:37;;;;;;;0.20;0.10;;;;;;;;;;4950229;28;20043;-85
2022/09/28 13:45:12;;;;;;;0.20;0.10;;;;;;;;;;4937002;28;20062;-86
2022/09/28 13:47:48;;;;;;;0.20;0.10;;;;;;;;;;4935354;28;20114;-87
2022/09/28 13:50:27;;;;;;;0.20;0.10;;;;;;;;;;4947325;28;20050;-86
2022/09/28 13:52:56;;;;;;;0.20;0.10;;;;;;;;;;4952342;28;20046;-87
2022/09/28 13:55:40;;;;;;;0.20;0.10;;;;;;;;;;4950150;28;20038;-86
2022/09/28 13:58:19;;;;;;;0.20;0.10;;;;;;;;;;4949154;28;20039;-84
2022/09/28 14:00:58;;;;;;;0.20;0.10;;;;;;;;;;4952503;28;20046;-86
2022/09/28 14:03:27;;;;;;;0.20;0.10;;;;;;;;;;4933660;28;20042;-83
2022/09/28 14:06:09;;;;;;;0.20;0.10;;;;;;;;;;4934636;28;20045;-85
2022/09/28 14:09:07;;;;;;;0.20;0.10;;;;;;;;;;4937377;28;20532;-85
2022/09/28 14:11:34;;;;;;;0.20;0.10;;;;;;;;;;4927208;28;20049;-82
2022/09/28 14:14:01;;;;;;;0.20;0.10;;;;;;;;;;4943647;28;20050;-82
2022/09/28 14:16:32;;;;;;;0.20;0.10;;;;;;;;;;4959818;28;20372;-81
2022/09/28 14:19:05;;;;;;;0.20;0.10;;;;;;;;;;4974104;28;20429;-83
2022/09/28 14:21:32;;;;;;;0.20;0.10;;;;;;;;;;4935088;28;20034;-83
2022/09/28 14:24:04;;;;;;;0.20;0.10;;;;;;;;;;4951726;28;20041;-83
2022/09/28 14:26:49;;;;;;;0.20;0.10;;;;;;;;;;4954039;28;20042;-84
2022/09/28 14:29:21;;;;;;;0.20;0.10;;;;;;;;;;4949482;28;20137;-85
2022/09/28 14:31:47;;;;;;;0.20;0.10;;;;;;;;;;4935268;28;20050;-85
2022/09/28 14:34:32;;;;;;;0.20;0.10;;;;;;;;;;4937510;28;20476;-84
2022/09/28 14:42:29;;;;;;;0.20;0.10;;;;;;;;;;4935415;28;20043;-85
2022/09/28 14:45:01;;;;;;;0.20;0.10;;;;;;;;;;4944450;28;20035;-85
2022/09/28 14:47:34;;;;;;;0.20;0.10;;;;;;;;;;4947669;28;20034;-85
2022/09/28 14:50:17;;;;;;;0.20;0.10;;;;;;;;;;4941752;28;20050;-85
2022/09/28 14:52:46;;;;;;;0.20;0.10;;;;;;;;;;4935665;28;20078;-84
2022/09/28 14:55:14;;;;;;;0.20;0.10;;;;;;;;;;4953127;28;20148;-84
2022/09/28 14:57:40;;;;;;;0.20;0.10;;;;;;;;;;4952248;28;20057;-85
2022/09/28 15:00:25;;;;;;;0.20;0.10;;;;;;;;;;4926001;28;20042;-84
2022/09/28 15:02:51;;;;;;;0.20;0.10;;;;;;;;;;4932068;28;20031;-85
2022/09/28 15:05:27;;;;;;;0.20;0.10;;;;;;;;;;4929835;28;20038;-85
2022/09/28 15:07:54;;;;;;;0.20;0.10;;;;;;;;;;4933681;28;20039;-84
2022/09/28 15:10:20;;;;;;;0.20;0.10;;;;;;;;;;4934993;28;20081;-83
2022/09/28 15:12:46;;;;;;;0.20;0.10;;;;;;;;;;4934748;28;20134;-85
2022/09/28 15:15:24;;;;;;;0.20;0.10;;;;;;;;;;4948287;28;20565;-85